Terminal Aerodrome Forecast
Issued by NWS

Home | Current Version | Previous Version | Text Only | Print | Product List | Glossary On
Versions: 1 2 3 4 5 6 7 8 9 10 11 12 13 14 15 16 17
000
FTUS45 KGJT 262339 AAC
TAFVEL
TAF AMD
KVEL 262339Z 2700/2724 26012G20KT P6SM VCTS SCT080CB SCT150
      TEMPO 2700/2702 VRB18G30KT P6SM -TSRA BKN080CB OVC150
     FM270200 30007KT P6SM SCT140
     FM271400 VRB03KT P6SM SKC
     FM272100 28007KT P6SM FEW250=

USA.gov is the U.S. government's official web portal to all federal, state and local government web resources and services.